Suring, Wisconsin
Current Conditions -  °F | °C
As of 5:15 PM on Wednesday 17 Dec 2014 (Local Time) from KEZS Reporting Station
Overcast Overcast  
Wind Chill: 20°   Ceiling: 2800
Heat Index: 27°   Visibility: 10mi
Dew Point: 17°   Wind: 7mph
Humidity: 66%   Direction: 280°W
Pressure: 30.21"   Gusts: NA
Location:  45°N, 88.37°W
Report Text: KEZS 172315Z AUTO 28006KT 10SM OVC028 M03/M08 A3021 RMK AO2 T10261081
Loading
Personal Weather Stations






























Interactive Weather Map New forecast layout! Learn more

10-Day Weather Forecast

Advertisements
Track Severe Weather on mobile